createdAt,value
2022-12-03T00:01:02.523Z,44.00
2022-12-03T00:03:29.598Z,42.90
2022-12-03T00:05:56.643Z,45.50
2022-12-03T00:08:23.424Z,44.60
2022-12-03T00:10:50.124Z,42.90
2022-12-03T00:13:16.771Z,40.70
2022-12-03T00:15:43.465Z,43.10
2022-12-03T00:18:10.181Z,42.10
2022-12-03T00:20:36.895Z,41.80
2022-12-03T00:23:03.653Z,42.80
2022-12-03T00:25:30.477Z,42.80
2022-12-03T00:27:57.135Z,43.00
2022-12-03T00:30:23.793Z,46.10
2022-12-03T00:32:50.505Z,44.80
2022-12-03T00:35:17.226Z,44.80
2022-12-03T00:37:43.893Z,45.30
2022-12-03T00:40:11.932Z,43.30
2022-12-03T00:42:38.675Z,43.10
2022-12-03T00:45:05.943Z,43.30
2022-12-03T00:47:32.668Z,44.40
2022-12-03T00:49:59.339Z,43.10
2022-12-03T00:52:26.557Z,44.80
2022-12-03T00:54:53.661Z,42.60
2022-12-03T00:57:20.586Z,42.70
2022-12-03T00:59:47.227Z,42.60
2022-12-03T01:02:14.072Z,41.50
2022-12-03T01:04:40.929Z,45.70
2022-12-03T01:07:07.726Z,46.00
2022-12-03T01:09:34.499Z,43.40
2022-12-03T01:12:01.178Z,42.10
2022-12-03T01:14:27.863Z,44.50
2022-12-03T01:16:54.613Z,46.60
2022-12-03T01:19:21.347Z,43.00
2022-12-03T01:21:50.326Z,43.40
2022-12-03T01:24:18.342Z,42.50
2022-12-03T01:26:45.362Z,42.60
2022-12-03T01:29:12.181Z,43.40
2022-12-03T01:31:57.442Z,45.50
2022-12-03T01:34:24.117Z,44.00
2022-12-03T01:36:52.468Z,43.60
2022-12-03T01:39:19.433Z,42.70
2022-12-03T01:41:48.320Z,42.60
2022-12-03T01:44:33.006Z,42.50
2022-12-03T01:47:03.875Z,41.50
2022-12-03T01:49:42.439Z,44.00
2022-12-03T01:52:23.144Z,42.40
2022-12-03T01:54:56.907Z,42.80
2022-12-03T01:57:30.193Z,41.60
2022-12-03T01:59:58.977Z,43.00
2022-12-03T02:02:28.866Z,42.30
2022-12-03T02:04:56.717Z,41.50
2022-12-03T02:07:27.233Z,44.10
2022-12-03T02:09:55.537Z,43.50
2022-12-03T02:12:31.743Z,43.10
2022-12-03T02:14:59.516Z,41.80
2022-12-03T02:17:27.036Z,42.40
2022-12-03T02:19:54.889Z,42.00
2022-12-03T02:22:35.490Z,42.10
2022-12-03T02:25:19.134Z,42.20
2022-12-03T02:27:46.181Z,42.60
2022-12-03T02:30:16.122Z,43.70
2022-12-03T02:32:42.877Z,42.70
2022-12-03T02:35:19.760Z,43.70
2022-12-03T02:37:49.386Z,43.30
2022-12-03T02:40:20.275Z,42.80
2022-12-03T02:42:48.030Z,41.80
2022-12-03T02:45:20.116Z,42.90
2022-12-03T02:47:54.605Z,42.30
2022-12-03T02:50:26.389Z,41.70
2022-12-03T02:52:56.102Z,42.40
2022-12-03T02:55:23.685Z,41.60
2022-12-03T02:57:52.050Z,42.00
2022-12-03T03:00:19.903Z,43.10
2022-12-03T03:02:47.206Z,43.60
2022-12-03T03:05:15.539Z,42.50
2022-12-03T03:07:42.663Z,44.70
2022-12-03T03:10:14.145Z,46.70
2022-12-03T03:12:41.154Z,42.50
2022-12-03T03:15:09.336Z,43.70
2022-12-03T03:17:36.120Z,45.30
2022-12-03T03:20:04.343Z,43.80
2022-12-03T03:22:39.611Z,43.60
2022-12-03T03:25:09.366Z,44.60
2022-12-03T03:27:36.869Z,42.70
2022-12-03T03:30:04.704Z,44.90
2022-12-03T03:32:31.510Z,43.70
2022-12-03T03:34:58.476Z,42.80
2022-12-03T03:37:25.788Z,44.40
2022-12-03T03:39:52.499Z,46.80
2022-12-03T03:42:19.299Z,43.90
2022-12-03T03:44:46.533Z,43.10
2022-12-03T03:47:13.923Z,42.80
2022-12-03T03:49:41.573Z,43.70
2022-12-03T03:52:11.512Z,44.70
2022-12-03T03:54:38.979Z,43.70
2022-12-03T03:57:05.934Z,44.00
2022-12-03T03:59:32.758Z,43.10
2022-12-03T04:01:59.415Z,45.30
2022-12-03T04:04:35.130Z,43.50
2022-12-03T04:07:01.903Z,42.10
2022-12-03T04:09:28.589Z,42.90
2022-12-03T04:12:14.205Z,42.70
2022-12-03T04:14:40.844Z,42.00
2022-12-03T04:17:07.485Z,42.50
2022-12-03T04:19:34.121Z,42.30
2022-12-03T04:22:19.439Z,42.60
2022-12-03T04:24:46.110Z,43.20
2022-12-03T04:27:31.238Z,43.10
2022-12-03T04:29:57.914Z,45.50
2022-12-03T04:32:43.193Z,43.90
2022-12-03T04:35:39.275Z,45.00
2022-12-03T04:38:06.045Z,44.50
2022-12-03T04:41:00.732Z,45.00
2022-12-03T04:43:28.555Z,43.30
2022-12-03T04:45:55.340Z,44.40
2022-12-03T04:48:22.097Z,43.40
2022-12-03T04:50:48.948Z,42.20
2022-12-03T04:53:15.660Z,41.30
2022-12-03T04:55:42.337Z,42.90
2022-12-03T04:58:09.881Z,41.90
2022-12-03T05:00:36.617Z,46.70
2022-12-03T05:03:03.413Z,43.90
2022-12-03T05:05:30.238Z,44.20
2022-12-03T05:07:56.943Z,47.70
2022-12-03T05:10:23.706Z,44.30
2022-12-03T05:12:50.374Z,45.70
2022-12-03T05:15:17.138Z,44.10
2022-12-03T05:17:43.828Z,44.60
2022-12-03T05:20:30.610Z,44.60
2022-12-03T05:22:57.347Z,43.60
2022-12-03T05:25:24.119Z,45.20
2022-12-03T05:27:50.788Z,44.50
2022-12-03T05:30:17.670Z,45.30
2022-12-03T05:32:44.334Z,44.10
2022-12-03T05:35:11.352Z,45.20
2022-12-03T05:37:38.069Z,44.80
2022-12-03T05:40:05.567Z,46.20
2022-12-03T05:42:50.828Z,46.20
2022-12-03T05:45:18.584Z,45.00
2022-12-03T05:47:45.257Z,44.40
2022-12-03T05:50:12.145Z,46.10
2022-12-03T05:52:38.870Z,42.90
2022-12-03T05:55:06.477Z,41.60
2022-12-03T05:57:33.248Z,43.30
2022-12-03T06:00:00.024Z,43.30
2022-12-03T06:02:26.780Z,43.40
2022-12-03T06:04:53.710Z,44.70
2022-12-03T06:07:20.660Z,45.30
2022-12-03T06:09:47.355Z,43.80
2022-12-03T06:12:14.127Z,42.70
2022-12-03T06:14:41.013Z,43.40
2022-12-03T06:17:07.796Z,44.70
2022-12-03T06:19:34.659Z,45.20
2022-12-03T06:22:01.436Z,46.60
2022-12-03T06:24:28.347Z,45.10
2022-12-03T06:26:55.027Z,45.50
2022-12-03T06:29:21.711Z,42.60
2022-12-03T06:31:48.400Z,43.40
2022-12-03T06:34:15.050Z,44.10
2022-12-03T06:36:41.739Z,42.20
2022-12-03T06:39:08.517Z,44.50
2022-12-03T06:41:35.213Z,46.30
2022-12-03T06:51:23.239Z,44.80
2022-12-03T06:53:49.929Z,48.60
2022-12-03T06:56:21.392Z,44.70
2022-12-03T06:58:48.960Z,47.20
2022-12-03T07:01:15.725Z,44.20
2022-12-03T07:03:42.431Z,47.80
2022-12-03T07:06:09.194Z,44.10
2022-12-03T07:08:35.912Z,44.80
2022-12-03T07:11:02.579Z,46.80
2022-12-03T07:13:29.293Z,43.40
2022-12-03T07:15:56.109Z,43.40
2022-12-03T07:18:22.911Z,44.60
2022-12-03T07:20:49.608Z,45.20
2022-12-03T07:23:16.357Z,47.70
2022-12-03T07:25:43.014Z,43.60
2022-12-03T07:28:09.721Z,43.90
2022-12-03T07:30:36.369Z,44.70
2022-12-03T07:33:03.119Z,44.50
2022-12-03T07:35:29.848Z,43.00
2022-12-03T07:37:56.588Z,43.60
2022-12-03T07:40:23.339Z,43.70
2022-12-03T07:42:50.000Z,46.00
2022-12-03T07:45:16.720Z,48.00
2022-12-03T07:47:43.482Z,45.20
2022-12-03T07:50:10.617Z,44.20
2022-12-03T07:52:37.379Z,43.50
2022-12-03T07:55:04.316Z,43.00
2022-12-03T07:57:30.942Z,41.80
2022-12-03T07:59:57.670Z,41.90
2022-12-03T08:02:24.429Z,43.00
2022-12-03T08:04:51.297Z,44.30
2022-12-03T08:07:18.100Z,43.40
2022-12-03T08:09:45.065Z,44.00
2022-12-03T08:12:40.138Z,41.70
2022-12-03T08:15:14.285Z,41.80
2022-12-03T08:17:42.432Z,42.00
2022-12-03T08:20:20.878Z,43.30
2022-12-03T08:22:50.760Z,42.00
2022-12-03T08:25:31.865Z,42.00
2022-12-03T08:28:22.991Z,45.90
2022-12-03T08:31:26.867Z,46.00
2022-12-03T08:34:31.695Z,43.30
2022-12-03T08:37:01.167Z,41.60
2022-12-03T08:39:33.662Z,41.90
2022-12-03T08:42:31.008Z,45.20
2022-12-03T08:45:20.039Z,45.80
2022-12-03T08:47:46.751Z,41.10
2022-12-03T08:50:28.254Z,39.10
2022-12-03T08:52:59.696Z,39.40
2022-12-03T08:55:36.351Z,40.50
2022-12-03T08:58:30.898Z,38.50
2022-12-03T09:01:11.106Z,41.70
2022-12-03T09:03:49.495Z,40.80
2022-12-03T09:06:16.299Z,44.70
2022-12-03T09:08:43.053Z,44.20
2022-12-03T09:11:09.745Z,44.30
2022-12-03T09:13:36.421Z,42.70
2022-12-03T09:16:03.191Z,43.10
2022-12-03T09:18:29.894Z,41.70
2022-12-03T09:20:57.097Z,42.00
2022-12-03T09:23:24.016Z,43.20
2022-12-03T09:25:50.723Z,44.90
2022-12-03T09:28:17.389Z,43.20
2022-12-03T09:30:44.143Z,44.70
2022-12-03T09:33:10.858Z,44.10
2022-12-03T09:35:37.595Z,45.50
2022-12-03T09:38:04.252Z,43.40
2022-12-03T09:40:30.966Z,42.10
2022-12-03T09:43:00.914Z,41.10
2022-12-03T09:45:27.654Z,42.80
2022-12-03T09:47:55.147Z,39.20
2022-12-03T09:50:25.112Z,39.10
2022-12-03T09:52:54.850Z,39.80
2022-12-03T09:55:24.389Z,40.60
2022-12-03T09:57:55.500Z,42.00
2022-12-03T10:00:26.009Z,44.20
2022-12-03T10:02:56.394Z,43.60
2022-12-03T10:05:24.037Z,44.60
2022-12-03T10:07:52.292Z,44.00
2022-12-03T10:10:22.563Z,44.20
2022-12-03T10:12:51.944Z,45.40
2022-12-03T10:15:23.101Z,44.00
2022-12-03T10:17:52.540Z,42.90
2022-12-03T10:20:21.326Z,44.50
2022-12-03T10:22:50.855Z,43.90
2022-12-03T10:25:20.807Z,56.20
2022-12-03T10:28:02.356Z,48.40
2022-12-03T10:30:29.862Z,46.00
2022-12-03T10:32:58.549Z,44.60
2022-12-03T10:35:45.474Z,44.30
2022-12-03T10:38:17.943Z,44.20
2022-12-03T10:40:45.771Z,43.80
2022-12-03T10:43:14.001Z,44.10
2022-12-03T10:45:41.683Z,42.60
2022-12-03T10:48:17.005Z,42.70
2022-12-03T10:51:03.661Z,42.70
2022-12-03T10:53:33.479Z,41.50
2022-12-03T10:56:03.139Z,41.10
2022-12-03T10:58:33.929Z,43.60
2022-12-03T11:01:04.051Z,42.70
2022-12-03T11:03:34.785Z,44.30
2022-12-03T11:06:02.439Z,41.20
2022-12-03T11:08:37.292Z,42.10
2022-12-03T11:11:13.294Z,40.90
2022-12-03T11:13:39.968Z,40.30
2022-12-03T11:16:08.303Z,40.80
2022-12-03T11:18:38.140Z,40.00
2022-12-03T11:21:08.774Z,40.70
2022-12-03T11:23:44.386Z,42.10
2022-12-03T11:26:29.419Z,40.90
2022-12-03T11:29:00.306Z,42.10
2022-12-03T11:31:39.521Z,42.90
2022-12-03T11:34:18.446Z,41.20
2022-12-03T11:37:10.284Z,40.80
2022-12-03T11:39:52.952Z,45.10
2022-12-03T11:42:25.976Z,49.20
2022-12-03T11:45:04.765Z,46.90
2022-12-03T11:47:45.191Z,44.40
2022-12-03T11:50:17.952Z,43.50
2022-12-03T11:52:45.968Z,42.90
2022-12-03T11:55:25.083Z,45.80
2022-12-03T11:58:01.352Z,48.10
2022-12-03T12:00:28.429Z,45.10
2022-12-03T12:02:57.602Z,44.10
2022-12-03T12:05:32.594Z,45.30
2022-12-03T12:08:01.724Z,46.40
2022-12-03T12:10:49.649Z,46.10
2022-12-03T12:15:59.960Z,44.60
2022-12-03T12:18:42.833Z,45.30
2022-12-03T12:21:50.785Z,42.80
2022-12-03T12:24:43.581Z,42.40
2022-12-03T12:27:15.587Z,42.70
2022-12-03T12:29:46.335Z,42.00
2022-12-03T12:32:15.889Z,41.00
2022-12-03T12:34:46.271Z,45.10
2022-12-03T12:37:19.606Z,43.40
2022-12-03T12:39:47.983Z,42.50
2022-12-03T12:42:40.078Z,41.10
2022-12-03T12:45:30.010Z,44.00
2022-12-03T12:48:14.855Z,45.50
2022-12-03T12:50:44.212Z,42.70
2022-12-03T12:53:10.811Z,42.30
2022-12-03T12:55:41.246Z,41.30
2022-12-03T12:58:13.917Z,41.70
2022-12-03T13:00:41.220Z,43.10
2022-12-03T13:03:08.630Z,43.60
2022-12-03T13:05:41.376Z,42.10
2022-12-03T13:08:37.438Z,40.90
2022-12-03T13:11:04.263Z,42.10
2022-12-03T13:13:44.263Z,42.20
2022-12-03T13:16:22.864Z,41.60
2022-12-03T13:18:58.006Z,41.00
2022-12-03T13:21:40.745Z,41.60
2022-12-03T13:24:26.765Z,40.90
2022-12-03T13:26:53.434Z,45.60
2022-12-03T13:29:22.711Z,44.10
2022-12-03T13:31:54.578Z,43.90
2022-12-03T13:34:24.049Z,42.70
2022-12-03T13:36:57.418Z,44.20
2022-12-03T13:39:31.964Z,42.50
2022-12-03T13:42:33.711Z,42.10
2022-12-03T13:45:02.840Z,43.20
2022-12-03T13:47:31.903Z,42.50
2022-12-03T13:50:03.695Z,45.50
2022-12-03T13:52:34.085Z,43.70
2022-12-03T13:55:03.880Z,40.50
2022-12-03T13:57:30.536Z,39.40
2022-12-03T13:59:57.475Z,39.70
2022-12-03T14:02:24.456Z,40.50
2022-12-03T14:04:55.358Z,41.40
2022-12-03T14:07:25.439Z,45.50
2022-12-03T14:09:52.557Z,47.00
2022-12-03T14:12:25.735Z,46.30
2022-12-03T14:14:54.107Z,46.00
2022-12-03T14:17:20.942Z,46.40
2022-12-03T14:19:47.707Z,46.50
2022-12-03T14:22:14.437Z,48.10
2022-12-03T14:24:41.188Z,45.80
2022-12-03T14:27:07.901Z,47.20
2022-12-03T14:29:34.662Z,47.90
2022-12-03T14:32:01.677Z,46.20
2022-12-03T14:34:28.368Z,43.00
2022-12-03T14:36:55.053Z,42.30
2022-12-03T14:39:21.812Z,42.30
2022-12-03T14:42:07.210Z,43.70
2022-12-03T14:44:34.042Z,43.30
2022-12-03T14:47:00.772Z,43.60
2022-12-03T14:49:27.555Z,43.10
2022-12-03T14:51:54.309Z,44.20
2022-12-03T14:54:20.998Z,42.30
2022-12-03T14:56:48.012Z,41.90
2022-12-03T14:59:14.702Z,40.40
2022-12-03T15:01:44.306Z,41.10
2022-12-03T15:04:11.032Z,44.30
2022-12-03T15:06:37.703Z,43.90
2022-12-03T15:09:04.855Z,41.90
2022-12-03T15:11:31.955Z,40.30
2022-12-03T15:13:58.773Z,43.50
2022-12-03T15:16:25.478Z,45.30
2022-12-03T15:18:52.270Z,41.80
2022-12-03T15:21:18.945Z,42.00
2022-12-03T15:23:45.577Z,40.30
2022-12-03T15:26:12.241Z,41.10
2022-12-03T15:28:38.942Z,40.40
2022-12-03T15:31:05.790Z,39.70
2022-12-03T15:33:32.461Z,44.90
2022-12-03T15:35:59.403Z,43.00
2022-12-03T15:38:26.254Z,44.00
2022-12-03T15:40:53.000Z,41.20
2022-12-03T15:43:19.797Z,45.20
2022-12-03T15:45:46.729Z,41.40
2022-12-03T15:48:13.817Z,42.10
2022-12-03T15:50:40.905Z,40.90
2022-12-03T15:53:07.745Z,40.20
2022-12-03T15:55:34.403Z,40.60
2022-12-03T15:58:01.061Z,40.40
2022-12-03T16:00:27.814Z,41.70
2022-12-03T16:02:54.544Z,41.40
2022-12-03T16:05:21.349Z,43.30
2022-12-03T16:07:48.150Z,41.40
2022-12-03T16:10:17.508Z,40.50
2022-12-03T16:12:45.283Z,41.30
2022-12-03T16:15:11.997Z,41.20
2022-12-03T16:17:38.698Z,43.90
2022-12-03T16:20:06.663Z,43.70
2022-12-03T16:22:33.325Z,42.20
2022-12-03T16:25:01.071Z,43.50
2022-12-03T16:27:27.728Z,41.60
2022-12-03T16:29:56.205Z,41.80
2022-12-03T16:32:23.878Z,44.00
2022-12-03T16:34:50.634Z,51.60
2022-12-03T16:37:17.322Z,44.90
2022-12-03T16:39:43.966Z,43.10
2022-12-03T16:42:16.943Z,41.90
2022-12-03T16:45:02.862Z,41.10
2022-12-03T16:47:33.860Z,41.40
2022-12-03T16:50:02.222Z,40.00
2022-12-03T16:52:29.018Z,39.00
2022-12-03T16:54:55.684Z,42.20
2022-12-03T16:57:22.347Z,43.50
2022-12-03T16:59:49.000Z,41.90
2022-12-03T17:02:15.738Z,40.20
2022-12-03T17:04:42.417Z,40.90
2022-12-03T17:07:09.100Z,43.50
2022-12-03T17:09:35.787Z,41.60
2022-12-03T17:12:02.528Z,41.60
2022-12-03T17:14:33.203Z,41.40
2022-12-03T17:17:00.442Z,41.00
2022-12-03T17:19:27.195Z,40.40
2022-12-03T17:21:54.202Z,41.70
2022-12-03T17:24:21.593Z,40.20
2022-12-03T17:26:48.396Z,40.70
2022-12-03T17:29:15.123Z,41.00
2022-12-03T17:31:42.757Z,42.90
2022-12-03T17:34:09.950Z,40.80
2022-12-03T17:36:36.738Z,40.50
2022-12-03T17:39:03.601Z,42.00
2022-12-03T17:41:30.260Z,41.70
2022-12-03T17:43:57.037Z,39.20
2022-12-03T17:46:23.877Z,40.50
2022-12-03T17:48:50.620Z,37.10
2022-12-03T17:51:19.203Z,40.00
2022-12-03T17:53:46.053Z,40.20
2022-12-03T17:56:12.807Z,43.90
2022-12-03T17:58:39.477Z,42.80
2022-12-03T18:01:08.507Z,41.80
2022-12-03T18:03:35.207Z,39.50
2022-12-03T18:06:02.477Z,40.10
2022-12-03T18:08:29.351Z,40.30
2022-12-03T18:10:56.182Z,39.40
2022-12-03T18:13:37.886Z,42.00
2022-12-03T18:16:04.909Z,42.20
2022-12-03T18:18:31.669Z,40.90
2022-12-03T18:21:02.127Z,41.60
2022-12-03T18:23:29.174Z,39.70
2022-12-03T18:25:56.715Z,40.80
2022-12-03T18:28:23.818Z,41.40
2022-12-03T18:30:52.719Z,43.00
2022-12-03T18:33:21.331Z,39.70
2022-12-03T18:35:48.223Z,38.80
2022-12-03T18:38:17.154Z,41.40
2022-12-03T18:40:45.390Z,41.90
2022-12-03T18:43:13.179Z,42.10
2022-12-03T18:45:40.381Z,40.80
2022-12-03T18:48:18.254Z,39.40
2022-12-03T18:50:45.619Z,38.70
2022-12-03T18:53:18.396Z,41.10
2022-12-03T18:55:46.882Z,39.30
2022-12-03T18:58:13.576Z,39.70
2022-12-03T19:00:40.629Z,42.10
2022-12-03T19:03:07.551Z,40.70
2022-12-03T19:05:35.401Z,41.20
2022-12-03T19:08:03.689Z,40.10
2022-12-03T19:10:30.565Z,40.60
2022-12-03T19:12:57.373Z,39.70
2022-12-03T19:15:24.211Z,40.30
2022-12-03T19:17:51.453Z,40.70
2022-12-03T19:20:18.274Z,38.90
2022-12-03T19:22:44.984Z,39.50
2022-12-03T19:25:11.687Z,38.60
2022-12-03T19:27:38.435Z,39.30
2022-12-03T19:30:06.774Z,39.70
2022-12-03T19:32:34.806Z,38.50
2022-12-03T19:35:05.053Z,39.80
2022-12-03T19:37:33.667Z,40.90
2022-12-03T19:40:01.052Z,38.50
2022-12-03T19:42:28.086Z,39.00
2022-12-03T19:44:54.916Z,38.40
2022-12-03T19:47:24.555Z,37.80
2022-12-03T19:49:53.406Z,40.30
2022-12-03T19:52:20.430Z,38.70
2022-12-03T19:54:47.183Z,39.80
2022-12-03T19:57:17.923Z,38.10
2022-12-03T19:59:48.282Z,37.50
2022-12-03T20:02:15.103Z,38.60
2022-12-03T20:04:41.897Z,40.00
2022-12-03T20:07:08.640Z,39.30
2022-12-03T20:09:35.427Z,38.10
2022-12-03T20:12:02.087Z,39.00
2022-12-03T20:14:29.267Z,37.00
2022-12-03T20:16:56.004Z,36.70
2022-12-03T20:19:22.838Z,37.50
2022-12-03T20:21:49.514Z,38.10
2022-12-03T20:24:17.625Z,37.80
2022-12-03T20:26:44.606Z,37.50
2022-12-03T20:29:13.128Z,37.50
2022-12-03T20:31:41.014Z,38.50
2022-12-03T20:34:07.799Z,39.00
2022-12-03T20:36:34.654Z,38.30
2022-12-03T20:39:04.507Z,38.40
2022-12-03T20:41:33.996Z,38.10
2022-12-03T20:44:00.633Z,39.10
2022-12-03T20:46:29.785Z,38.90
2022-12-03T20:48:57.494Z,38.50
2022-12-03T20:51:27.622Z,39.30
2022-12-03T20:53:54.392Z,40.30
2022-12-03T20:56:24.871Z,38.20
2022-12-03T20:58:53.199Z,38.60
2022-12-03T21:01:23.173Z,37.60
2022-12-03T21:03:51.386Z,37.10
2022-12-03T21:06:18.537Z,38.60
2022-12-03T21:08:45.977Z,38.20
2022-12-03T21:11:18.165Z,38.50
2022-12-03T21:13:46.518Z,36.70
2022-12-03T21:16:16.309Z,36.20
2022-12-03T21:18:43.434Z,37.50
2022-12-03T21:21:13.149Z,38.40
2022-12-03T21:23:40.282Z,37.00
2022-12-03T21:26:10.365Z,37.60
2022-12-03T21:28:38.999Z,38.30
2022-12-03T21:31:08.970Z,38.80
2022-12-03T21:33:36.313Z,37.00
2022-12-03T21:36:04.858Z,38.40
2022-12-03T21:38:33.075Z,37.40
2022-12-03T21:41:00.734Z,37.80
2022-12-03T21:43:27.547Z,37.70
2022-12-03T21:45:54.527Z,37.90
2022-12-03T21:48:21.943Z,38.10
2022-12-03T21:51:06.544Z,38.90
2022-12-03T21:53:40.520Z,36.30
2022-12-03T21:56:18.786Z,36.50
2022-12-03T21:58:46.371Z,37.20
2022-12-03T22:01:16.453Z,38.20
2022-12-03T22:03:43.464Z,40.30
2022-12-03T22:06:10.839Z,40.20
2022-12-03T22:08:38.098Z,38.50
2022-12-03T22:11:12.946Z,38.80
2022-12-03T22:13:40.497Z,37.00
2022-12-03T22:16:09.729Z,37.80
2022-12-03T22:18:37.246Z,38.90
2022-12-03T22:21:12.236Z,36.30
2022-12-03T22:23:40.390Z,36.80
2022-12-03T22:26:09.073Z,37.70
2022-12-03T22:28:35.666Z,38.10
2022-12-03T22:31:07.615Z,49.00
2022-12-03T22:33:35.049Z,39.20
2022-12-03T22:36:07.647Z,37.70
2022-12-03T22:38:34.794Z,38.20
2022-12-03T22:41:06.385Z,38.10
2022-12-03T22:43:33.161Z,36.50
2022-12-03T22:46:00.076Z,38.80
2022-12-03T22:48:26.772Z,37.60
2022-12-03T22:50:53.520Z,36.70
2022-12-03T22:53:21.204Z,37.10
2022-12-03T22:55:56.810Z,37.90
2022-12-03T22:58:25.581Z,36.60
2022-12-03T23:00:52.619Z,36.40
2022-12-03T23:03:19.749Z,43.10
2022-12-03T23:05:46.741Z,37.70
2022-12-03T23:08:16.852Z,36.50
2022-12-03T23:10:46.811Z,36.70
2022-12-03T23:13:13.939Z,37.70
2022-12-03T23:15:51.542Z,36.90
2022-12-03T23:18:19.313Z,37.10
2022-12-03T23:20:48.970Z,38.40
2022-12-03T23:23:16.202Z,39.00
2022-12-03T23:25:43.596Z,37.20
2022-12-03T23:28:12.490Z,39.00
2022-12-03T23:30:39.809Z,38.00
2022-12-03T23:33:07.079Z,36.70
2022-12-03T23:35:34.318Z,38.10
2022-12-03T23:38:01.183Z,38.30
2022-12-03T23:40:27.990Z,37.80
2022-12-03T23:42:55.048Z,37.90
2022-12-03T23:45:24.191Z,37.20
2022-12-03T23:47:56.559Z,37.70
2022-12-03T23:50:25.408Z,38.30
2022-12-03T23:52:52.149Z,38.30
2022-12-03T23:55:19.054Z,38.80
2022-12-03T23:57:46.123Z,37.70
